createdAt,value
2023-05-05T00:00:08.922Z,11.00
2023-05-05T00:02:37.284Z,10.90
2023-05-05T00:05:05.958Z,10.90
2023-05-05T00:07:34.038Z,10.90
2023-05-05T00:10:01.986Z,10.90
2023-05-05T00:12:30.361Z,10.90
2023-05-05T00:14:58.439Z,10.80
2023-05-05T00:17:27.809Z,10.80
2023-05-05T00:19:55.805Z,10.80
2023-05-05T00:22:23.779Z,10.60
2023-05-05T00:24:51.752Z,10.60
2023-05-05T00:27:19.712Z,10.50
2023-05-05T00:29:47.668Z,10.50
2023-05-05T00:32:15.615Z,10.60
2023-05-05T00:34:44.992Z,10.50
2023-05-05T00:37:13.027Z,10.60
2023-05-05T00:39:41.025Z,10.50
2023-05-05T00:42:09.028Z,10.50
2023-05-05T00:44:40.277Z,10.50
2023-05-05T00:47:09.598Z,10.40
2023-05-05T00:49:38.982Z,10.40
2023-05-05T00:52:09.824Z,10.40
2023-05-05T00:54:38.890Z,10.40
2023-05-05T00:57:07.849Z,10.40
2023-05-05T00:59:36.331Z,10.30
2023-05-05T01:02:04.422Z,10.30
2023-05-05T01:04:32.497Z,10.30
2023-05-05T01:07:14.812Z,10.20
2023-05-05T01:10:15.303Z,10.30
2023-05-05T01:12:47.534Z,10.50
2023-05-05T01:15:23.052Z,10.20
2023-05-05T01:18:07.632Z,10.20
2023-05-05T01:20:44.024Z,10.20
2023-05-05T01:23:19.597Z,10.20
2023-05-05T01:26:06.736Z,10.10
2023-05-05T01:29:04.137Z,10.00
2023-05-05T01:31:57.135Z,10.10
2023-05-05T01:34:29.844Z,10.00
2023-05-05T01:37:04.744Z,10.10
2023-05-05T01:39:35.007Z,10.10
2023-05-05T01:42:07.503Z,10.10
2023-05-05T01:44:37.658Z,10.10
2023-05-05T01:47:07.862Z,10.10
2023-05-05T01:49:38.290Z,10.10
2023-05-05T01:52:07.907Z,10.10
2023-05-05T01:54:36.326Z,10.20
2023-05-05T01:57:05.877Z,10.10
2023-05-05T01:59:34.981Z,10.00
2023-05-05T02:02:04.315Z,10.00
2023-05-05T02:04:35.113Z,10.10
2023-05-05T02:07:05.397Z,10.00
2023-05-05T02:09:34.240Z,10.10
2023-05-05T02:12:03.517Z,10.10
2023-05-05T02:14:32.166Z,10.10
2023-05-05T02:17:01.443Z,10.10
2023-05-05T02:19:32.892Z,10.10
2023-05-05T02:22:02.317Z,10.00
2023-05-05T02:24:30.983Z,9.90
2023-05-05T02:27:00.735Z,9.80
2023-05-05T02:29:33.760Z,9.70
2023-05-05T02:32:06.137Z,9.70
2023-05-05T02:34:38.078Z,9.70
2023-05-05T02:37:10.857Z,9.70
2023-05-05T02:39:44.098Z,9.70
2023-05-05T02:42:17.423Z,9.70
2023-05-05T02:44:47.286Z,9.70
2023-05-05T02:47:15.258Z,9.60
2023-05-05T02:49:44.194Z,9.60
2023-05-05T02:52:14.494Z,9.60
2023-05-05T02:54:42.509Z,9.70
2023-05-05T02:57:17.252Z,9.70
2023-05-05T02:59:51.354Z,9.70
2023-05-05T03:02:25.926Z,9.80
2023-05-05T03:05:01.511Z,9.80
2023-05-05T03:07:35.954Z,9.70
2023-05-05T03:10:08.632Z,9.70
2023-05-05T03:12:40.886Z,9.60
2023-05-05T03:15:11.515Z,9.60
2023-05-05T03:17:42.067Z,9.60
2023-05-05T03:20:12.390Z,9.60
2023-05-05T03:22:41.701Z,9.60
2023-05-05T03:25:10.454Z,9.60
2023-05-05T03:27:38.409Z,9.60
2023-05-05T03:30:07.999Z,9.60
2023-05-05T03:32:36.271Z,9.60
2023-05-05T03:35:04.450Z,9.60
2023-05-05T03:37:32.415Z,9.60
2023-05-05T03:40:01.744Z,9.70
2023-05-05T03:42:29.718Z,9.70
2023-05-05T03:44:57.757Z,9.80
2023-05-05T03:47:25.757Z,9.80
2023-05-05T03:49:53.733Z,9.80
2023-05-05T03:52:21.728Z,9.90
2023-05-05T03:54:49.685Z,10.00
2023-05-05T03:57:19.002Z,10.00
2023-05-05T03:59:47.083Z,10.10
2023-05-05T04:02:16.977Z,10.20
2023-05-05T04:04:46.343Z,10.30
2023-05-05T04:07:14.350Z,10.30
2023-05-05T04:09:44.671Z,10.30
2023-05-05T04:12:12.694Z,10.30
2023-05-05T04:14:42.021Z,10.30
2023-05-05T04:17:10.011Z,10.30
2023-05-05T04:19:37.952Z,10.20
2023-05-05T04:22:05.935Z,10.20
2023-05-05T04:24:33.900Z,10.20
2023-05-05T04:27:02.294Z,10.20
2023-05-05T04:29:30.286Z,10.20
2023-05-05T04:31:59.642Z,10.30
2023-05-05T04:34:27.597Z,10.30
2023-05-05T04:36:55.554Z,10.30
2023-05-05T04:39:23.569Z,10.40
2023-05-05T04:41:51.510Z,10.40
2023-05-05T04:44:19.484Z,10.50
2023-05-05T04:46:47.530Z,10.50
2023-05-05T04:49:16.909Z,10.60
2023-05-05T04:51:44.952Z,10.60
2023-05-05T04:54:12.891Z,10.60
2023-05-05T04:56:40.885Z,10.80
2023-05-05T04:59:08.862Z,10.80
2023-05-05T05:01:38.563Z,10.80
2023-05-05T05:04:06.730Z,10.70
2023-05-05T05:06:36.087Z,10.80
2023-05-05T05:09:04.211Z,10.70
2023-05-05T05:11:32.221Z,10.70
2023-05-05T05:14:00.218Z,10.70
2023-05-05T05:16:28.356Z,10.70
2023-05-05T05:18:56.377Z,10.70
2023-05-05T05:21:24.396Z,10.70
2023-05-05T05:23:54.077Z,10.60
2023-05-05T05:26:22.192Z,10.60
2023-05-05T05:28:50.172Z,10.60
2023-05-05T05:31:18.534Z,10.70
2023-05-05T05:33:46.531Z,10.70
2023-05-05T05:36:14.546Z,10.80
2023-05-05T05:38:42.481Z,10.90
2023-05-05T05:41:12.459Z,11.00
2023-05-05T05:43:41.561Z,11.00
2023-05-05T05:46:09.816Z,11.10
2023-05-05T05:48:38.209Z,11.10
2023-05-05T05:51:06.291Z,11.30
2023-05-05T05:53:34.384Z,11.40
2023-05-05T05:56:02.433Z,11.50
2023-05-05T05:58:32.149Z,11.50
2023-05-05T06:01:00.358Z,11.60
2023-05-05T06:03:28.421Z,11.60
2023-05-05T06:05:56.690Z,11.70
2023-05-05T06:08:25.128Z,11.80
2023-05-05T06:10:53.306Z,11.80
2023-05-05T06:13:21.477Z,11.80
2023-05-05T06:15:50.958Z,11.90
2023-05-05T06:18:18.992Z,12.00
2023-05-05T06:20:49.889Z,12.10
2023-05-05T06:23:18.141Z,12.20
2023-05-05T06:25:46.226Z,12.30
2023-05-05T06:28:14.194Z,12.30
2023-05-05T06:30:42.177Z,12.40
2023-05-05T06:33:11.598Z,12.50
2023-05-05T06:35:39.591Z,12.70
2023-05-05T06:38:07.639Z,12.60
2023-05-05T06:40:35.993Z,12.70
2023-05-05T06:43:03.931Z,12.70
2023-05-05T06:45:32.215Z,12.80
2023-05-05T06:48:00.337Z,13.00
2023-05-05T06:50:29.712Z,13.00
2023-05-05T06:52:57.673Z,13.20
2023-05-05T06:55:26.364Z,13.20
2023-05-05T06:57:54.469Z,13.40
2023-05-05T07:00:23.128Z,13.50
2023-05-05T07:02:51.386Z,13.60
2023-05-05T07:05:19.496Z,13.60
2023-05-05T07:07:53.863Z,13.80
2023-05-05T07:10:22.810Z,13.90
2023-05-05T07:12:51.629Z,14.00
2023-05-05T07:15:28.787Z,14.10
2023-05-05T07:17:57.772Z,14.30
2023-05-05T07:20:26.589Z,14.60
2023-05-05T07:22:56.143Z,14.80
2023-05-05T07:25:24.147Z,15.20
2023-05-05T07:27:52.242Z,15.50
2023-05-05T07:30:20.973Z,15.70
2023-05-05T07:32:49.322Z,15.80
2023-05-05T07:35:17.537Z,15.90
2023-05-05T07:37:45.873Z,16.00
2023-05-05T07:40:15.412Z,16.10
2023-05-05T07:42:43.422Z,16.20
2023-05-05T07:45:12.576Z,16.40
2023-05-05T07:47:40.837Z,16.60
2023-05-05T07:50:09.750Z,16.70
2023-05-05T07:52:48.457Z,16.70
2023-05-05T07:55:21.313Z,16.80
2023-05-05T07:57:49.792Z,16.80
2023-05-05T08:00:19.975Z,16.80
2023-05-05T08:02:48.349Z,17.00
2023-05-05T08:05:17.128Z,17.50
2023-05-05T08:07:45.146Z,19.20
2023-05-05T08:10:13.937Z,21.60
2023-05-05T08:12:43.330Z,24.00
2023-05-05T08:15:11.953Z,26.20
2023-05-05T08:17:48.737Z,26.80
2023-05-05T08:20:17.052Z,28.60
2023-05-05T08:22:45.208Z,29.10
2023-05-05T08:25:13.922Z,29.20
2023-05-05T08:27:44.317Z,29.80
2023-05-05T08:30:13.380Z,30.20
2023-05-05T08:32:41.509Z,30.30
2023-05-05T08:35:10.387Z,30.10
2023-05-05T08:37:38.641Z,32.10
2023-05-05T08:40:07.629Z,33.60
2023-05-05T08:42:38.671Z,32.50
2023-05-05T08:45:11.142Z,31.50
2023-05-05T08:47:41.060Z,31.60
2023-05-05T08:50:11.415Z,32.20
2023-05-05T08:52:41.496Z,30.30
2023-05-05T08:55:22.290Z,31.00
2023-05-05T08:57:53.709Z,31.30
2023-05-05T09:00:24.020Z,31.50
2023-05-05T09:02:52.358Z,30.80
2023-05-05T09:05:20.647Z,31.20
2023-05-05T09:07:48.957Z,31.10
2023-05-05T09:10:17.149Z,31.90
2023-05-05T09:12:45.644Z,35.20
2023-05-05T09:15:15.247Z,36.20
2023-05-05T09:17:44.766Z,36.70
2023-05-05T09:20:14.351Z,36.00
2023-05-05T09:22:44.434Z,38.80
2023-05-05T09:25:13.456Z,40.30
2023-05-05T09:27:43.511Z,42.00
2023-05-05T09:30:15.973Z,41.80
2023-05-05T09:32:49.517Z,42.20
2023-05-05T09:35:18.661Z,43.80
2023-05-05T09:37:47.193Z,43.50
2023-05-05T09:40:16.768Z,43.00
2023-05-05T09:42:45.397Z,39.60
2023-05-05T09:45:27.547Z,39.10
2023-05-05T09:48:00.441Z,37.80
2023-05-05T09:50:30.885Z,37.10
2023-05-05T09:53:00.747Z,38.30
2023-05-05T09:55:29.063Z,40.30
2023-05-05T09:57:57.120Z,40.20
2023-05-05T10:00:39.600Z,40.70
2023-05-05T10:03:09.026Z,40.30
2023-05-05T10:05:48.596Z,42.20
2023-05-05T10:08:17.059Z,40.50
2023-05-05T10:10:51.899Z,39.90
2023-05-05T10:13:22.322Z,40.90
2023-05-05T10:15:52.134Z,41.60
2023-05-05T10:18:26.079Z,42.50
2023-05-05T10:20:59.854Z,42.80
2023-05-05T10:23:36.915Z,40.60
2023-05-05T10:26:07.234Z,38.60
2023-05-05T10:28:38.328Z,38.00
2023-05-05T10:31:24.205Z,35.20
2023-05-05T10:34:01.271Z,31.60
2023-05-05T10:36:31.684Z,29.40
2023-05-05T10:39:01.105Z,28.20
2023-05-05T10:41:30.927Z,27.00
2023-05-05T10:44:02.088Z,26.60
2023-05-05T10:46:31.910Z,26.30
2023-05-05T10:49:13.170Z,25.90
2023-05-05T10:51:47.591Z,25.60
2023-05-05T10:54:25.709Z,25.00
2023-05-05T10:56:54.262Z,24.30
2023-05-05T10:59:42.315Z,24.00
2023-05-05T11:02:24.688Z,23.50
2023-05-05T11:05:14.316Z,23.10
2023-05-05T11:07:42.952Z,23.00
2023-05-05T11:10:13.153Z,22.40
2023-05-05T11:13:19.598Z,22.30
2023-05-05T11:15:47.954Z,21.70
2023-05-05T11:18:34.025Z,21.70
2023-05-05T11:21:17.166Z,21.40
2023-05-05T11:23:50.469Z,21.10
2023-05-05T11:26:40.118Z,21.30
2023-05-05T11:29:08.449Z,21.30
2023-05-05T11:31:36.646Z,21.40
2023-05-05T11:34:27.752Z,21.40
2023-05-05T11:37:02.744Z,21.30
2023-05-05T11:39:42.157Z,21.10
2023-05-05T11:42:34.015Z,21.10
2023-05-05T11:45:02.203Z,21.00
2023-05-05T11:47:31.825Z,21.30
2023-05-05T11:50:20.012Z,21.30
2023-05-05T11:52:49.710Z,21.00
2023-05-05T11:55:24.024Z,21.00
2023-05-05T11:57:52.337Z,21.10
2023-05-05T12:00:20.939Z,21.20
2023-05-05T12:02:57.409Z,21.30
2023-05-05T12:05:25.778Z,21.40
2023-05-05T12:07:59.654Z,21.50
2023-05-05T12:10:28.328Z,21.50
2023-05-05T12:12:56.342Z,21.50
2023-05-05T12:15:31.963Z,21.60
2023-05-05T12:18:02.443Z,21.50
2023-05-05T12:20:32.481Z,21.20
2023-05-05T12:23:08.510Z,21.10
2023-05-05T12:25:38.278Z,21.10
2023-05-05T12:28:07.174Z,21.10
2023-05-05T12:30:35.904Z,21.30
2023-05-05T12:33:05.261Z,21.30
2023-05-05T12:35:33.810Z,21.40
2023-05-05T12:38:02.125Z,21.50
2023-05-05T12:40:52.927Z,21.40
2023-05-05T12:43:31.385Z,21.50
2023-05-05T12:46:04.273Z,21.40
2023-05-05T12:48:32.578Z,21.20
2023-05-05T12:51:20.506Z,21.40
2023-05-05T12:53:49.684Z,21.40
2023-05-05T12:56:36.442Z,21.60
2023-05-05T12:59:06.521Z,21.40
2023-05-05T13:01:35.169Z,21.50
2023-05-05T13:04:08.507Z,21.50
2023-05-05T13:06:37.676Z,21.60
2023-05-05T13:09:06.394Z,21.60
2023-05-05T13:11:39.393Z,21.60
2023-05-05T13:14:08.086Z,21.60
2023-05-05T13:16:36.728Z,21.50
2023-05-05T13:19:04.858Z,21.60
2023-05-05T13:21:33.412Z,21.80
2023-05-05T13:24:08.609Z,21.70
2023-05-05T13:26:48.420Z,21.80
2023-05-05T13:29:17.472Z,21.80
2023-05-05T13:31:46.242Z,21.70
2023-05-05T13:34:14.407Z,21.40
2023-05-05T13:36:42.393Z,21.10
2023-05-05T13:39:10.514Z,21.00
2023-05-05T13:41:38.493Z,20.90
2023-05-05T13:44:07.847Z,20.80
2023-05-05T13:46:36.031Z,20.50
2023-05-05T13:49:04.069Z,20.60
2023-05-05T13:51:32.026Z,20.70
2023-05-05T13:54:00.043Z,20.80
2023-05-05T13:56:28.876Z,21.00
2023-05-05T13:58:57.323Z,21.10
2023-05-05T14:01:26.977Z,21.10
2023-05-05T14:03:57.152Z,21.30
2023-05-05T14:06:25.966Z,21.30
2023-05-05T14:08:54.050Z,21.40
2023-05-05T14:11:22.058Z,21.40
2023-05-05T14:13:50.029Z,21.50
2023-05-05T14:16:18.044Z,21.50
2023-05-05T14:18:47.450Z,21.50
2023-05-05T14:21:15.396Z,21.50
2023-05-05T14:23:43.364Z,21.60
2023-05-05T14:26:11.438Z,21.50
2023-05-05T14:28:39.409Z,21.40
2023-05-05T14:31:07.502Z,21.30
2023-05-05T14:33:35.462Z,21.40
2023-05-05T14:36:05.062Z,21.40
2023-05-05T14:38:33.153Z,21.50
2023-05-05T14:41:01.449Z,21.80
2023-05-05T14:43:29.404Z,21.80
2023-05-05T14:45:59.158Z,21.80
2023-05-05T14:48:27.489Z,21.60
2023-05-05T14:50:55.544Z,21.40
2023-05-05T14:53:24.932Z,21.40
2023-05-05T14:55:52.899Z,21.40
2023-05-05T14:58:23.751Z,21.30
2023-05-05T15:00:52.853Z,21.30
2023-05-05T15:03:20.943Z,21.10
2023-05-05T15:05:49.399Z,20.90
2023-05-05T15:08:18.721Z,20.80
2023-05-05T15:10:48.134Z,20.80
2023-05-05T15:13:17.166Z,20.70
2023-05-05T15:15:45.600Z,20.60
2023-05-05T15:18:13.591Z,20.60
2023-05-05T15:20:41.600Z,20.60
2023-05-05T15:23:09.585Z,20.60
2023-05-05T15:25:37.620Z,20.70
2023-05-05T15:28:07.170Z,20.90
2023-05-05T15:30:35.328Z,21.00
2023-05-05T15:33:03.365Z,21.00
2023-05-05T15:35:31.344Z,20.70
2023-05-05T15:37:59.334Z,20.80
2023-05-05T15:40:27.322Z,20.80
2023-05-05T15:42:55.442Z,20.70
2023-05-05T15:45:24.977Z,20.70
2023-05-05T15:47:53.716Z,20.70
2023-05-05T15:50:21.986Z,20.70
2023-05-05T15:52:50.320Z,20.60
2023-05-05T15:55:18.529Z,20.60
2023-05-05T15:57:46.530Z,20.50
2023-05-05T16:00:16.047Z,20.40
2023-05-05T16:02:45.684Z,20.30
2023-05-05T16:05:14.205Z,20.20
2023-05-05T16:07:42.473Z,20.20
2023-05-05T16:10:11.378Z,20.20
2023-05-05T16:12:39.400Z,20.20
2023-05-05T16:15:08.466Z,19.90
2023-05-05T16:17:36.697Z,19.80
2023-05-05T16:20:07.057Z,19.70
2023-05-05T16:22:35.097Z,19.60
2023-05-05T16:25:03.059Z,19.70
2023-05-05T16:27:31.053Z,19.70
2023-05-05T16:29:59.919Z,19.80
2023-05-05T16:32:28.084Z,19.90
2023-05-05T16:34:56.162Z,19.90
2023-05-05T16:37:25.596Z,19.90
2023-05-05T16:39:53.567Z,19.90
2023-05-05T16:42:21.537Z,19.90
2023-05-05T16:44:49.498Z,19.80
2023-05-05T16:47:17.457Z,19.70
2023-05-05T16:49:45.430Z,19.60
2023-05-05T16:52:13.379Z,19.50
2023-05-05T16:54:43.615Z,19.50
2023-05-05T16:57:11.645Z,19.40
2023-05-05T16:59:41.724Z,19.40
2023-05-05T17:02:09.822Z,19.30
2023-05-05T17:04:37.847Z,19.20
2023-05-05T17:07:05.881Z,19.10
2023-05-05T17:09:33.912Z,19.20
2023-05-05T17:12:04.131Z,19.10
2023-05-05T17:14:33.569Z,19.10
2023-05-05T17:17:01.591Z,19.00
2023-05-05T17:19:29.654Z,19.00
2023-05-05T17:21:57.720Z,18.90
2023-05-05T17:24:25.773Z,18.80
2023-05-05T17:26:53.826Z,18.80
2023-05-05T17:29:23.565Z,18.70
2023-05-05T17:31:51.700Z,18.60
2023-05-05T17:34:19.744Z,18.50
2023-05-05T17:36:47.763Z,18.40
2023-05-05T17:39:15.901Z,18.30
2023-05-05T17:41:43.908Z,18.30
2023-05-05T17:44:11.930Z,18.30
2023-05-05T17:46:41.480Z,18.20
2023-05-05T17:49:09.485Z,18.00
2023-05-05T17:51:37.486Z,17.90
2023-05-05T17:54:05.751Z,17.80
2023-05-05T17:56:33.996Z,17.70
2023-05-05T17:59:02.267Z,17.60
2023-05-05T18:01:30.256Z,17.50
2023-05-05T18:03:59.640Z,17.40
2023-05-05T18:06:29.366Z,17.30
2023-05-05T18:08:57.546Z,17.20
2023-05-05T18:11:27.609Z,17.20
2023-05-05T18:13:56.159Z,17.20
2023-05-05T18:16:24.241Z,17.10
2023-05-05T18:18:52.458Z,17.00
2023-05-05T18:21:22.511Z,17.00
2023-05-05T18:23:50.772Z,16.90
2023-05-05T18:26:18.751Z,16.90
2023-05-05T18:28:46.730Z,16.80
2023-05-05T18:31:14.969Z,16.80
2023-05-05T18:33:42.927Z,16.70
2023-05-05T18:36:10.894Z,16.70
2023-05-05T18:38:40.226Z,16.70
2023-05-05T18:41:08.294Z,16.70
2023-05-05T18:43:36.300Z,16.60
2023-05-05T18:46:04.343Z,16.60
2023-05-05T18:48:32.289Z,16.50
2023-05-05T18:51:02.298Z,16.50
2023-05-05T18:53:30.360Z,16.30
2023-05-05T18:56:00.021Z,16.30
2023-05-05T18:58:28.365Z,16.20
2023-05-05T19:00:56.465Z,16.10
2023-05-05T19:03:24.706Z,16.10
2023-05-05T19:05:52.675Z,16.10
2023-05-05T19:08:20.865Z,16.00
2023-05-05T19:10:48.840Z,16.00
2023-05-05T19:13:18.272Z,16.00
2023-05-05T19:15:46.453Z,15.90
2023-05-05T19:18:14.426Z,15.90
2023-05-05T19:20:43.694Z,16.00
2023-05-05T19:23:11.695Z,15.90
2023-05-05T19:25:39.853Z,15.90
2023-05-05T19:28:07.890Z,15.90
2023-05-05T19:30:37.425Z,15.90
2023-05-05T19:33:05.537Z,15.80
2023-05-05T19:35:33.546Z,15.80
2023-05-05T19:38:01.635Z,15.80
2023-05-05T19:40:29.621Z,15.90
2023-05-05T19:42:57.624Z,15.90
2023-05-05T19:45:25.630Z,15.80
2023-05-05T19:47:54.950Z,15.80
2023-05-05T19:50:23.172Z,15.70
2023-05-05T19:52:51.168Z,15.70
2023-05-05T19:55:19.717Z,15.70
2023-05-05T19:57:47.752Z,15.70
2023-05-05T20:00:16.643Z,15.60
2023-05-05T20:02:45.347Z,15.60
2023-05-05T20:05:16.381Z,15.50
2023-05-05T20:07:44.757Z,15.50
2023-05-05T20:10:14.099Z,15.40
2023-05-05T20:12:47.912Z,15.20
2023-05-05T20:15:18.752Z,15.10
2023-05-05T20:17:47.769Z,15.00
2023-05-05T20:20:20.063Z,15.00
2023-05-05T20:22:49.044Z,14.90
2023-05-05T20:25:17.352Z,14.90
2023-05-05T20:27:46.349Z,14.90
2023-05-05T20:30:14.606Z,14.80
2023-05-05T20:32:42.723Z,14.70
2023-05-05T20:35:12.797Z,14.80
2023-05-05T20:37:42.606Z,14.80
2023-05-05T20:40:12.063Z,14.80
2023-05-05T20:42:40.195Z,14.80
2023-05-05T20:45:10.624Z,14.70
2023-05-05T20:47:38.678Z,14.70
2023-05-05T20:50:07.986Z,14.70
2023-05-05T20:52:36.234Z,14.60
2023-05-05T20:55:06.112Z,14.60
2023-05-05T20:57:34.150Z,14.50
2023-05-05T21:00:02.189Z,14.50
2023-05-05T21:02:31.673Z,14.40
2023-05-05T21:05:02.905Z,14.30
2023-05-05T21:07:33.192Z,14.20
2023-05-05T21:10:01.246Z,14.10
2023-05-05T21:12:31.119Z,14.10
2023-05-05T21:14:59.644Z,14.00
2023-05-05T21:17:27.842Z,14.00
2023-05-05T21:19:56.875Z,13.90
2023-05-05T21:22:25.277Z,13.90
2023-05-05T21:24:53.237Z,13.90
2023-05-05T21:27:21.515Z,13.80
2023-05-05T21:29:52.524Z,13.80
2023-05-05T21:32:20.664Z,13.70
2023-05-05T21:34:48.743Z,13.70
2023-05-05T21:37:16.712Z,13.60
2023-05-05T21:39:44.710Z,13.60
2023-05-05T21:42:12.741Z,13.50
2023-05-05T21:44:40.707Z,13.50
2023-05-05T21:47:11.590Z,13.50
2023-05-05T21:49:39.658Z,13.50
2023-05-05T21:52:07.623Z,13.40
2023-05-05T21:54:35.725Z,13.40
2023-05-05T21:57:03.855Z,13.30
2023-05-05T21:59:31.846Z,13.30
2023-05-05T22:02:00.015Z,13.30
2023-05-05T22:04:29.477Z,13.20
2023-05-05T22:06:57.447Z,13.20
2023-05-05T22:09:25.449Z,13.20
2023-05-05T22:11:53.440Z,13.10
2023-05-05T22:14:21.442Z,13.10
2023-05-05T22:16:49.485Z,13.10
2023-05-05T22:19:17.444Z,13.10
2023-05-05T22:21:46.775Z,13.00
2023-05-05T22:24:14.772Z,13.00
2023-05-05T22:26:43.493Z,13.00
2023-05-05T22:29:12.041Z,13.00
2023-05-05T22:31:40.190Z,12.90
2023-05-05T22:34:08.381Z,12.80
2023-05-05T22:36:36.430Z,12.80
2023-05-05T22:39:05.804Z,12.80
2023-05-05T22:41:33.752Z,12.80
2023-05-05T22:44:01.704Z,12.80
2023-05-05T22:46:29.697Z,12.70
2023-05-05T22:48:57.712Z,12.60
2023-05-05T22:51:25.682Z,12.60
2023-05-05T22:53:53.662Z,12.60
2023-05-05T22:56:23.098Z,12.60
2023-05-05T22:58:51.080Z,12.60
2023-05-05T23:01:19.167Z,12.60
2023-05-05T23:03:47.199Z,12.50
2023-05-05T23:06:15.200Z,12.50
2023-05-05T23:08:43.178Z,12.30
2023-05-05T23:11:11.143Z,12.40
2023-05-05T23:13:40.703Z,12.50
2023-05-05T23:16:08.839Z,12.40
2023-05-05T23:18:37.879Z,12.40
2023-05-05T23:21:05.858Z,12.30
2023-05-05T23:23:33.939Z,12.30
2023-05-05T23:26:01.915Z,12.20
2023-05-05T23:28:29.870Z,12.20
2023-05-05T23:30:59.212Z,12.20
2023-05-05T23:33:27.184Z,12.20
2023-05-05T23:35:55.515Z,12.10
2023-05-05T23:38:23.486Z,12.10
2023-05-05T23:40:51.511Z,12.10
2023-05-05T23:43:19.475Z,12.10
2023-05-05T23:45:47.521Z,12.10
2023-05-05T23:48:16.877Z,12.10
2023-05-05T23:50:44.870Z,12.00
2023-05-05T23:53:13.304Z,12.00
2023-05-05T23:55:41.259Z,11.90
2023-05-05T23:58:09.225Z,11.90
